createdAt,value
2019-04-05T00:00:55.732Z,13.97
2019-04-05T00:03:25.400Z,13.67
2019-04-05T00:05:55.057Z,14.17
2019-04-05T00:08:24.708Z,15.17
2019-04-05T00:10:54.371Z,15.37
2019-04-05T00:13:24.020Z,15.03
2019-04-05T00:15:53.682Z,14.67
2019-04-05T00:18:23.342Z,15.27
2019-04-05T00:20:53.020Z,15.27
2019-04-05T00:23:22.747Z,15.73
2019-04-05T00:25:52.392Z,15.33
2019-04-05T00:28:22.046Z,16.37
2019-04-05T00:30:51.703Z,16.43
2019-04-05T00:33:21.369Z,16.40
2019-04-05T00:35:51.159Z,16.33
2019-04-05T00:38:20.828Z,16.33
2019-04-05T00:40:50.489Z,17.40
2019-04-05T00:43:20.159Z,17.03
2019-04-05T00:45:49.803Z,17.43
2019-04-05T00:48:19.795Z,18.10
2019-04-05T00:50:49.520Z,18.10
2019-04-05T00:53:19.241Z,18.47
2019-04-05T00:55:49.365Z,17.83
2019-04-05T00:58:19.100Z,18.47
2019-04-05T01:00:50.289Z,17.87
2019-04-05T01:03:19.943Z,17.63
2019-04-05T01:05:51.328Z,18.97
2019-04-05T01:08:21.045Z,19.07
2019-04-05T01:10:50.704Z,19.10
2019-04-05T01:13:20.353Z,18.53
2019-04-05T01:15:50.571Z,19.50
2019-04-05T01:18:20.557Z,20.07
2019-04-05T01:20:54.007Z,20.07
2019-04-05T01:23:24.724Z,20.73
2019-04-05T01:25:57.837Z,20.10
2019-04-05T01:28:28.583Z,20.27
2019-04-05T01:30:58.380Z,21.50
2019-04-05T01:33:28.167Z,20.63
2019-04-05T01:35:57.825Z,20.77
2019-04-05T01:38:27.488Z,21.43
2019-04-05T01:40:59.521Z,22.50
2019-04-05T01:43:29.552Z,22.07
2019-04-05T01:46:00.642Z,22.97
2019-04-05T01:48:30.305Z,20.57
2019-04-05T01:50:59.951Z,22.40
2019-04-05T01:53:29.918Z,21.97
2019-04-05T01:55:59.637Z,22.10
2019-04-05T01:58:29.299Z,22.70
2019-04-05T02:00:59.018Z,23.27
2019-04-05T02:03:30.483Z,22.87
2019-04-05T02:06:00.264Z,23.00
2019-04-05T02:08:31.690Z,23.07
2019-04-05T02:11:01.439Z,21.97
2019-04-05T02:13:31.340Z,23.73
2019-04-05T02:16:06.669Z,23.83
2019-04-05T02:18:32.371Z,22.40
2019-04-05T02:21:02.026Z,23.60
2019-04-05T02:23:31.941Z,22.27
2019-04-05T02:26:01.597Z,23.80
2019-04-05T02:28:31.245Z,24.97
2019-04-05T02:31:00.925Z,24.77
2019-04-05T02:33:30.563Z,24.80
2019-04-05T02:36:00.368Z,24.57
2019-04-05T02:38:30.021Z,25.40
2019-04-05T02:41:02.846Z,23.87
2019-04-05T02:43:36.131Z,24.27
2019-04-05T02:46:22.184Z,23.10
2019-04-05T02:48:42.385Z,22.87
2019-04-05T02:51:17.602Z,23.23
2019-04-05T02:53:48.262Z,22.57
2019-04-05T02:56:20.071Z,23.53
2019-04-05T02:58:53.318Z,22.67
2019-04-05T03:04:25.010Z,23.87
2019-04-05T03:06:54.838Z,22.23
2019-04-05T03:09:25.008Z,23.17
2019-04-05T03:11:56.057Z,23.97
2019-04-05T03:14:27.615Z,23.97
2019-04-05T03:16:57.921Z,22.57
2019-04-05T03:19:31.750Z,23.27
2019-04-05T03:22:05.765Z,23.13
2019-04-05T03:24:39.482Z,23.70
2019-04-05T03:27:13.441Z,24.07
2019-04-05T03:29:44.393Z,23.47
2019-04-05T03:32:14.748Z,22.97
2019-04-05T03:34:45.572Z,22.73
2019-04-05T03:37:16.010Z,23.37
2019-04-05T03:39:46.117Z,22.87
2019-04-05T03:42:16.702Z,24.13
2019-04-05T03:44:47.531Z,22.27
2019-04-05T03:47:17.444Z,22.40
2019-04-05T03:49:47.353Z,22.87
2019-04-05T03:52:17.631Z,20.73
2019-04-05T03:54:47.500Z,19.93
2019-04-05T03:57:17.218Z,20.73
2019-04-05T03:59:46.923Z,19.87
2019-04-05T04:02:16.900Z,20.90
2019-04-05T04:04:46.612Z,20.40
2019-04-05T04:07:16.515Z,21.80
2019-04-05T04:09:46.225Z,20.17
2019-04-05T04:12:16.220Z,21.57
2019-04-05T04:14:45.927Z,22.93
2019-04-05T04:17:15.932Z,21.73
2019-04-05T04:19:46.104Z,22.13
2019-04-05T04:22:25.466Z,22.60
2019-04-05T04:24:55.729Z,23.17
2019-04-05T04:27:26.182Z,23.00
2019-04-05T04:30:00.215Z,22.83
2019-04-05T04:32:29.186Z,23.27
2019-04-05T04:34:59.085Z,21.90
2019-04-05T04:37:29.174Z,23.07
2019-04-05T04:39:58.911Z,22.17
2019-04-05T04:42:29.239Z,23.90
2019-04-05T04:45:11.445Z,22.93
2019-04-05T04:47:31.270Z,22.37
2019-04-05T04:50:01.728Z,24.00
2019-04-05T04:52:33.400Z,22.67
2019-04-05T04:55:03.489Z,22.13
2019-04-05T04:57:33.362Z,21.97
2019-04-05T05:00:04.322Z,24.07
2019-04-05T05:02:34.902Z,23.37
2019-04-05T05:05:07.360Z,22.27
2019-04-05T05:07:38.529Z,23.43
2019-04-05T05:10:09.393Z,22.40
2019-04-05T05:12:39.666Z,22.50
2019-04-05T05:15:11.226Z,23.13
2019-04-05T05:17:41.457Z,22.37
2019-04-05T05:20:11.926Z,23.60
2019-04-05T05:22:42.015Z,36.80
2019-04-05T05:25:12.576Z,24.10
2019-04-05T05:27:42.529Z,23.57
2019-04-05T05:30:12.902Z,25.17
2019-04-05T05:32:43.077Z,23.93
2019-04-05T05:35:13.633Z,23.23
2019-04-05T05:37:43.823Z,24.93
2019-04-05T05:40:14.373Z,22.97
2019-04-05T05:42:44.095Z,24.17
2019-04-05T05:45:14.325Z,24.27
2019-04-05T05:47:51.879Z,24.47
2019-04-05T05:50:15.754Z,23.37
2019-04-05T05:52:45.406Z,23.80
2019-04-05T05:55:15.304Z,23.77
2019-04-05T05:57:45.036Z,23.13
2019-04-05T06:00:18.172Z,23.10
2019-04-05T06:02:48.560Z,24.17
2019-04-05T06:05:19.569Z,23.73
2019-04-05T06:07:49.165Z,23.10
2019-04-05T06:10:18.953Z,23.37
2019-04-05T06:12:48.684Z,22.30
2019-04-05T06:15:18.474Z,20.60
2019-04-05T06:17:48.193Z,21.97
2019-04-05T06:20:19.391Z,22.40
2019-04-05T06:22:49.057Z,22.60
2019-04-05T06:25:19.740Z,21.10
2019-04-05T06:27:49.452Z,20.47
2019-04-05T06:30:19.318Z,21.03
2019-04-05T06:32:48.962Z,21.13
2019-04-05T06:35:18.622Z,22.20
2019-04-05T06:37:49.492Z,21.40
2019-04-05T06:40:19.207Z,21.80
2019-04-05T06:42:50.080Z,20.90
2019-04-05T06:45:19.717Z,21.93
2019-04-05T06:47:49.384Z,22.83
2019-04-05T06:50:19.032Z,21.83
2019-04-05T06:52:48.692Z,23.10
2019-04-05T06:55:18.425Z,22.27
2019-04-05T06:57:48.157Z,22.50
2019-04-05T07:00:21.017Z,22.50
2019-04-05T07:02:50.680Z,22.43
2019-04-05T07:05:21.001Z,24.00
2019-04-05T07:07:50.927Z,24.67
2019-04-05T07:10:20.580Z,23.27
2019-04-05T07:12:50.278Z,24.13
2019-04-05T07:15:19.969Z,25.87
2019-04-05T07:17:49.847Z,25.47
2019-04-05T07:20:19.972Z,23.60
2019-04-05T07:22:50.857Z,24.47
2019-04-05T07:25:20.524Z,23.93
2019-04-05T07:27:50.193Z,24.20
2019-04-05T07:30:20.208Z,21.70
2019-04-05T07:32:49.856Z,23.97
2019-04-05T07:35:32.854Z,24.13
2019-04-05T07:37:52.417Z,23.47
2019-04-05T07:40:22.062Z,24.17
2019-04-05T07:42:51.693Z,24.20
2019-04-05T07:47:20.222Z,22.93
2019-04-05T07:49:49.795Z,24.47
2019-04-05T07:52:19.358Z,24.70
2019-04-05T07:54:48.934Z,24.20
2019-04-05T07:57:21.314Z,23.30
2019-04-05T07:59:50.894Z,23.67
2019-04-05T08:02:20.474Z,24.17
2019-04-05T08:04:50.037Z,23.47
2019-04-05T08:07:22.506Z,23.83
2019-04-05T08:09:52.438Z,23.50
2019-04-05T08:12:22.329Z,24.57
2019-04-05T08:14:53.769Z,23.70
2019-04-05T08:17:23.321Z,25.07
2019-04-05T08:19:52.896Z,24.83
2019-04-05T08:22:22.472Z,24.37
2019-04-05T08:24:52.043Z,23.37
2019-04-05T08:27:21.622Z,23.60
2019-04-05T08:29:51.185Z,24.87
2019-04-05T08:32:20.763Z,24.73
2019-04-05T08:34:50.338Z,24.30
2019-04-05T08:37:19.917Z,24.20
2019-04-05T08:39:49.493Z,24.50
2019-04-05T08:42:19.062Z,25.67
2019-04-05T08:44:48.657Z,27.23
2019-04-05T08:47:18.226Z,24.83
2019-04-05T08:49:47.829Z,24.90
2019-04-05T08:52:17.588Z,24.30
2019-04-05T08:54:47.154Z,24.10
2019-04-05T08:57:16.829Z,22.97
2019-04-05T08:59:46.475Z,23.77
2019-04-05T09:02:16.100Z,23.67
2019-04-05T09:04:45.680Z,22.77
2019-04-05T09:07:15.470Z,21.30
2019-04-05T09:09:45.032Z,20.07
2019-04-05T09:12:14.607Z,19.80
2019-04-05T09:14:45.315Z,19.47
2019-04-05T09:17:14.963Z,19.93
2019-04-05T09:19:44.539Z,18.73
2019-04-05T09:22:14.109Z,20.50
2019-04-05T09:24:43.822Z,20.27
2019-04-05T09:27:13.412Z,20.00
2019-04-05T09:29:42.983Z,20.23
2019-04-05T09:32:14.295Z,19.23
2019-04-05T09:34:43.805Z,18.97
2019-04-05T09:37:13.387Z,18.67
2019-04-05T09:39:42.976Z,17.57
2019-04-05T09:42:12.534Z,19.00
2019-04-05T09:44:42.097Z,18.70
2019-04-05T09:47:11.688Z,17.60
2019-04-05T09:49:41.275Z,17.00
2019-04-05T09:52:10.892Z,17.87
2019-04-05T09:54:42.066Z,18.87
2019-04-05T09:57:11.631Z,18.33
2019-04-05T09:59:41.215Z,17.43
2019-04-05T10:02:10.781Z,17.13
2019-04-05T10:04:40.368Z,17.77
2019-04-05T10:07:10.003Z,18.93
2019-04-05T10:09:39.627Z,17.97
2019-04-05T10:12:10.203Z,17.20
2019-04-05T10:14:39.793Z,17.53
2019-04-05T10:17:09.363Z,18.03
2019-04-05T10:19:49.254Z,18.50
2019-04-05T10:22:11.772Z,19.77
2019-04-05T10:24:41.337Z,19.87
2019-04-05T10:27:10.923Z,19.23
2019-04-05T10:29:40.493Z,19.73
2019-04-05T10:32:10.191Z,18.17
2019-04-05T10:34:39.770Z,17.80
2019-04-05T10:37:09.367Z,18.80
2019-04-05T10:39:38.930Z,17.93
2019-04-05T10:42:30.678Z,17.10
2019-04-05T10:45:00.472Z,16.30
2019-04-05T10:47:30.378Z,16.43
2019-04-05T10:50:03.406Z,16.00
2019-04-05T10:52:31.250Z,15.63
2019-04-05T10:55:00.826Z,15.70
2019-04-05T10:57:30.388Z,15.40
2019-04-05T10:59:59.975Z,14.90
2019-04-05T11:02:29.650Z,14.60
2019-04-05T11:04:59.252Z,15.17
2019-04-05T11:07:28.851Z,13.93
2019-04-05T11:09:58.425Z,13.33
2019-04-05T11:12:27.988Z,13.80
2019-04-05T11:14:57.573Z,13.47
2019-04-05T11:17:27.149Z,12.17
2019-04-05T11:19:56.749Z,13.07
2019-04-05T11:22:26.326Z,12.60
2019-04-05T11:24:55.900Z,12.77
2019-04-05T11:27:26.486Z,13.00
2019-04-05T11:29:57.782Z,12.83
2019-04-05T11:32:27.357Z,12.33
2019-04-05T11:34:56.937Z,13.10
2019-04-05T11:37:27.252Z,13.00
2019-04-05T11:39:57.770Z,13.10
2019-04-05T11:42:29.194Z,12.87
2019-04-05T11:45:02.175Z,13.23
2019-04-05T11:47:33.266Z,14.13
2019-04-05T11:50:06.085Z,13.80
2019-04-05T11:52:35.908Z,13.70
2019-04-05T11:55:07.682Z,12.83
2019-04-05T11:57:37.265Z,13.17
2019-04-05T12:00:16.600Z,13.03
2019-04-05T12:02:47.850Z,12.57
2019-04-05T12:05:17.993Z,13.97
2019-04-05T12:07:47.569Z,14.13
2019-04-05T12:10:19.430Z,13.37
2019-04-05T12:12:48.751Z,12.87
2019-04-05T12:15:18.558Z,43.37
2019-04-05T12:17:48.130Z,17.07
2019-04-05T12:20:18.766Z,13.93
2019-04-05T12:22:52.350Z,14.00
2019-04-05T12:25:20.743Z,14.00
2019-04-05T12:27:50.322Z,15.00
2019-04-05T12:30:24.926Z,14.57
2019-04-05T12:32:54.494Z,15.93
2019-04-05T12:35:24.070Z,16.17
2019-04-05T12:37:55.683Z,14.20
2019-04-05T12:40:26.479Z,15.20
2019-04-05T12:42:57.859Z,15.33
2019-04-05T12:45:27.424Z,15.87
2019-04-05T12:47:59.130Z,15.73
2019-04-05T12:50:28.364Z,16.10
2019-04-05T12:52:57.987Z,15.43
2019-04-05T12:55:27.592Z,15.47
2019-04-05T12:57:57.178Z,15.27
2019-04-05T13:00:27.087Z,15.30
2019-04-05T13:02:57.287Z,15.03
2019-04-05T13:05:27.052Z,15.77
2019-04-05T13:07:57.972Z,15.20
2019-04-05T13:10:30.317Z,15.70
2019-04-05T13:12:58.999Z,15.33
2019-04-05T13:15:29.595Z,14.67
2019-04-05T13:18:01.185Z,15.43
2019-04-05T13:20:31.026Z,15.13
2019-04-05T13:23:04.441Z,16.17
2019-04-05T13:25:32.043Z,15.37
2019-04-05T13:28:12.819Z,15.40
2019-04-05T13:30:33.231Z,15.57
2019-04-05T13:33:02.889Z,15.90
2019-04-05T13:35:32.470Z,16.13
2019-04-05T13:38:02.039Z,15.83
2019-04-05T13:40:31.635Z,15.33
2019-04-05T13:43:02.036Z,16.70
2019-04-05T13:45:33.342Z,16.50
2019-04-05T13:48:02.928Z,16.23
2019-04-05T13:50:32.511Z,16.27
2019-04-05T13:53:02.096Z,14.93
2019-04-05T13:55:32.997Z,16.47
2019-04-05T13:58:02.576Z,16.60
2019-04-05T14:00:32.379Z,15.73
2019-04-05T14:03:01.955Z,15.33
2019-04-05T14:05:31.530Z,15.13
2019-04-05T14:08:09.755Z,16.03
2019-04-05T14:10:32.394Z,16.03
2019-04-05T14:13:01.964Z,16.37
2019-04-05T14:15:31.695Z,15.37
2019-04-05T14:18:01.282Z,15.60
2019-04-05T14:20:30.871Z,15.93
2019-04-05T14:23:00.429Z,16.30
2019-04-05T14:25:30.451Z,14.90
2019-04-05T14:28:00.081Z,15.20
2019-04-05T14:30:32.473Z,14.73
2019-04-05T14:33:01.038Z,14.83
2019-04-05T14:35:31.169Z,14.60
2019-04-05T14:38:00.750Z,14.17
2019-04-05T14:40:32.895Z,14.73
2019-04-05T14:43:01.614Z,13.77
2019-04-05T14:45:32.330Z,14.77
2019-04-05T14:48:01.979Z,14.57
2019-04-05T14:50:31.686Z,14.50
2019-04-05T14:53:02.006Z,15.90
2019-04-05T14:55:31.658Z,14.93
2019-04-05T14:58:01.247Z,14.93
2019-04-05T15:00:33.749Z,14.90
2019-04-05T15:03:03.328Z,14.03
2019-04-05T15:05:32.908Z,14.97
2019-04-05T15:08:02.543Z,14.07
2019-04-05T15:10:32.138Z,15.23
2019-04-05T15:13:01.702Z,13.40
2019-04-05T15:15:31.343Z,13.27
2019-04-05T15:18:00.909Z,14.97
2019-04-05T15:20:30.576Z,14.80
2019-04-05T15:23:00.144Z,15.23
2019-04-05T15:25:32.185Z,16.10
2019-04-05T15:28:01.766Z,14.53
2019-04-05T15:30:31.350Z,15.37
2019-04-05T15:33:02.562Z,14.80
2019-04-05T15:35:32.141Z,13.93
2019-04-05T15:38:02.261Z,14.30
2019-04-05T15:40:31.996Z,13.90
2019-04-05T15:43:01.745Z,15.10
2019-04-05T15:45:31.310Z,15.40
2019-04-05T15:48:00.883Z,14.80
2019-04-05T15:50:30.466Z,15.10
2019-04-05T15:53:02.316Z,14.60
2019-04-05T15:55:33.317Z,14.60
2019-04-05T15:58:03.899Z,14.70
2019-04-05T16:00:44.112Z,14.30
2019-04-05T16:03:15.122Z,15.27
2019-04-05T16:05:46.402Z,14.97
2019-04-05T16:08:18.762Z,16.55
2019-04-05T16:10:48.884Z,16.37
2019-04-05T16:13:18.447Z,16.27
2019-04-05T16:15:48.030Z,14.03
2019-04-05T16:18:17.671Z,15.20
2019-04-05T16:20:47.254Z,14.47
2019-04-05T16:23:16.821Z,15.83
2019-04-05T16:25:46.427Z,15.30
2019-04-05T16:28:15.998Z,15.20
2019-04-05T16:30:45.575Z,14.57
2019-04-05T16:33:15.150Z,15.83
2019-04-05T16:35:44.732Z,15.40
2019-04-05T16:38:14.313Z,15.77
2019-04-05T16:40:44.157Z,15.60
2019-04-05T16:43:13.738Z,15.57
2019-04-05T16:45:43.370Z,16.40
2019-04-05T16:48:12.956Z,15.87
2019-04-05T16:50:42.570Z,15.63
2019-04-05T16:53:12.178Z,16.60
2019-04-05T16:55:41.909Z,17.20
2019-04-05T16:58:11.478Z,17.87
2019-04-05T17:00:41.054Z,17.47
2019-04-05T17:03:12.172Z,18.80
2019-04-05T17:05:41.742Z,17.80
2019-04-05T17:08:11.341Z,17.93
2019-04-05T17:10:40.922Z,19.70
2019-04-05T17:13:10.498Z,18.33
2019-04-05T17:15:40.136Z,18.80
2019-04-05T17:18:09.742Z,19.20
2019-04-05T17:20:39.307Z,19.97
2019-04-05T17:23:10.406Z,20.00
2019-04-05T17:25:39.986Z,20.57
2019-04-05T17:28:09.548Z,20.20
2019-04-05T17:30:39.108Z,20.43
2019-04-05T17:33:08.776Z,20.67
2019-04-05T17:35:38.405Z,21.47
2019-04-05T17:38:09.016Z,21.17
2019-04-05T17:40:38.575Z,20.43
2019-04-05T17:43:08.228Z,19.83
2019-04-05T17:45:37.863Z,20.47
2019-04-05T17:48:07.507Z,19.63
2019-04-05T17:50:37.353Z,20.77
2019-04-05T17:53:12.841Z,20.47
2019-04-05T17:55:38.365Z,19.70
2019-04-05T17:58:09.802Z,19.13
2019-04-05T18:00:39.426Z,20.43
2019-04-05T18:03:09.009Z,19.33
2019-04-05T18:05:38.588Z,19.30
2019-04-05T18:08:09.670Z,18.87
2019-04-05T18:10:39.234Z,19.83
2019-04-05T18:13:08.854Z,20.37
2019-04-05T18:15:46.680Z,20.50
2019-04-05T18:18:09.802Z,19.53
2019-04-05T18:20:39.434Z,20.17
2019-04-05T18:23:09.011Z,20.93
2019-04-05T18:25:38.614Z,18.33
2019-04-05T18:28:08.207Z,21.10
2019-04-05T18:30:37.762Z,24.30
2019-04-05T18:33:07.326Z,22.17
2019-04-05T18:35:36.889Z,20.70
2019-04-05T18:38:06.454Z,20.43
2019-04-05T18:40:40.213Z,21.53
2019-04-05T18:43:07.410Z,21.53
2019-04-05T18:45:36.977Z,20.00
2019-04-05T18:48:06.605Z,20.33
2019-04-05T18:50:37.708Z,20.20
2019-04-05T18:53:07.267Z,20.30
2019-04-05T18:55:37.415Z,20.77
2019-04-05T18:58:08.212Z,20.73
2019-04-05T19:00:37.780Z,19.70
2019-04-05T19:03:07.347Z,20.33
2019-04-05T19:05:36.934Z,20.77
2019-04-05T19:08:06.834Z,20.60
2019-04-05T19:10:37.559Z,20.27
2019-04-05T19:13:07.321Z,20.53
2019-04-05T19:15:36.907Z,20.73
2019-04-05T19:18:06.480Z,21.42
2019-04-05T19:20:36.985Z,20.50
2019-04-05T19:23:06.670Z,21.20
2019-04-05T19:25:36.299Z,19.87
2019-04-05T19:28:05.884Z,20.03
2019-04-05T19:48:32.026Z,77.00
2019-04-05T19:50:47.465Z,78.23
2019-04-05T19:53:17.300Z,47.17
2019-04-05T19:55:46.955Z,29.10
2019-04-05T19:58:18.607Z,35.30
2019-04-05T20:00:48.258Z,27.63
2019-04-05T20:03:17.843Z,21.67
2019-04-05T20:05:47.476Z,27.30
2019-04-05T20:08:17.633Z,44.50
2019-04-05T20:10:47.201Z,37.33
2019-04-05T20:13:16.840Z,22.90
2019-04-05T20:15:46.462Z,25.73
2019-04-05T20:18:15.998Z,26.23
2019-04-05T20:20:45.565Z,24.47
2019-04-05T20:23:15.165Z,31.37
2019-04-05T20:25:44.733Z,23.60
2019-04-05T20:28:14.313Z,23.87
2019-04-05T20:30:43.891Z,23.33
2019-04-05T20:33:13.467Z,23.10
2019-04-05T20:35:43.071Z,24.47
2019-04-05T20:38:14.154Z,22.23
2019-04-05T20:40:43.735Z,22.73
2019-04-05T20:43:13.366Z,22.90
2019-04-05T20:45:42.957Z,25.40
2019-04-05T20:48:12.538Z,28.60
2019-04-05T20:50:42.110Z,22.10
2019-04-05T20:53:11.667Z,21.77
2019-04-05T20:55:42.557Z,23.43
2019-04-05T20:58:12.108Z,23.57
2019-04-05T21:00:41.674Z,24.13
2019-04-05T21:03:11.510Z,23.17
2019-04-05T21:05:41.053Z,23.73
2019-04-05T21:08:10.608Z,23.20
2019-04-05T21:10:41.360Z,22.97
2019-04-05T21:13:10.941Z,25.73
2019-04-05T21:15:40.507Z,22.58
2019-04-05T21:18:10.083Z,22.57
2019-04-05T21:20:39.636Z,22.03
2019-04-05T21:23:09.211Z,25.32
2019-04-05T21:25:38.774Z,22.43
2019-04-05T21:28:08.364Z,23.33
2019-04-05T21:30:37.928Z,22.70
2019-04-05T21:33:07.488Z,23.37
2019-04-05T21:35:37.141Z,23.07
2019-04-05T21:38:08.796Z,23.47
2019-04-05T21:40:38.437Z,25.37
2019-04-05T21:43:08.026Z,23.07
2019-04-05T21:45:37.650Z,23.00
2019-04-05T21:48:08.258Z,24.50
2019-04-05T21:50:37.822Z,23.33
2019-04-05T21:53:08.704Z,23.30
2019-04-05T21:55:38.299Z,26.57
2019-04-05T21:58:07.933Z,22.37
2019-04-05T22:00:40.847Z,22.67
2019-04-05T22:03:10.415Z,23.03
2019-04-05T22:05:40.009Z,97.90
2019-04-05T22:08:09.585Z,27.13
2019-04-05T22:10:40.651Z,23.67
2019-04-05T22:13:11.755Z,24.60
2019-04-05T22:15:43.686Z,24.20
2019-04-05T22:18:13.318Z,28.25
2019-04-05T22:20:42.907Z,27.37
2019-04-05T22:23:12.470Z,25.92
2019-04-05T22:25:42.048Z,27.70
2019-04-05T22:28:11.630Z,26.02
2019-04-05T22:30:41.219Z,24.53
2019-04-05T22:33:10.800Z,24.00
2019-04-05T22:35:40.354Z,24.60
2019-04-05T22:38:09.916Z,23.80
2019-04-05T22:40:39.491Z,25.13
2019-04-05T22:43:09.066Z,24.70
2019-04-05T22:45:38.640Z,23.00
2019-04-05T22:48:08.218Z,25.13
2019-04-05T22:50:37.794Z,24.63
2019-04-05T22:53:07.363Z,24.77
2019-04-05T22:55:36.936Z,27.95
2019-04-05T22:58:06.495Z,25.90
2019-04-05T23:00:36.126Z,27.43
2019-04-05T23:03:07.016Z,26.50
2019-04-05T23:05:37.846Z,24.03
2019-04-05T23:08:07.403Z,24.27
2019-04-05T23:10:39.131Z,25.63
2019-04-05T23:13:08.698Z,24.73
2019-04-05T23:15:38.263Z,27.03
2019-04-05T23:18:07.894Z,24.70
2019-04-05T23:20:37.460Z,25.83
2019-04-05T23:23:07.019Z,25.03
2019-04-05T23:25:36.613Z,24.77
2019-04-05T23:28:06.243Z,24.07
2019-04-05T23:30:35.800Z,25.90
2019-04-05T23:33:05.368Z,26.07
2019-04-05T23:35:34.942Z,25.47
2019-04-05T23:38:04.489Z,24.40
2019-04-05T23:40:34.053Z,23.77
2019-04-05T23:43:03.613Z,25.90
2019-04-05T23:45:33.242Z,26.43
2019-04-05T23:48:04.162Z,25.20
2019-04-05T23:50:33.725Z,25.17
2019-04-05T23:53:03.355Z,25.33
2019-04-05T23:55:33.808Z,25.50
2019-04-05T23:58:03.464Z,25.90
